Index of /observatory/weather/Observatory_weather

[ICO]NameLast modifiedSizeDescription

[DIR]Parent Directory  -  
[IMG]test.png24-Nov-2017 13:58 77K 
[DIR]reports/14-Feb-2018 13:55 -  
[TXT]radiation2012.txt17-Dec-2018 11:57 221K 
[TXT]radiation.txt24-Aug-2013 15:40 1.6M 
[IMG]quicklook_data_96h.png13-Dec-2018 05:17 182K 
[IMG]quicklook_data_48h.png13-Dec-2018 05:17 180K 
[IMG]quicklook_data_12h.png13-Dec-2018 05:17 177K 
[IMG]quicklook_data_2h.png13-Dec-2018 05:17 85K 
[IMG]quicklook_data_1h.png14-Dec-2017 17:08 39K 
[IMG]quicklook_data_0.1h.png14-Dec-2017 17:15 38K 
[   ]obs_rollover.xcf29-Aug-2018 13:34 4.5M 
[IMG]obs_rollover.jpg29-Aug-2018 13:30 343K 
[VID]movie.avi13-Jul-2018 00:01 6.2M 
[TXT]data.htm17-Dec-2018 11:57 346  
[DIR]archive/21-Feb-2018 15:20 -  
[IMG]YearlyRain.gif17-Dec-2018 11:57 4.9K 
[IMG]WindSpeedHistory.gif17-Dec-2018 11:57 10K 
[IMG]WindSpeed.gif17-Dec-2018 11:57 4.2K 
[IMG]WindDirectionHistory.gif17-Dec-2018 11:57 11K 
[IMG]WindDirection.gif17-Dec-2018 11:57 4.6K 
[IMG]WindChillHistory.gif17-Dec-2018 11:57 9.7K 
[IMG]WindChill.gif17-Dec-2018 11:57 4.4K 
[TXT]Tag-List.htm17-Dec-2018 11:57 8.3K 
[IMG]THW.gif17-Dec-2018 11:57 4.4K 
[IMG]SchPhyAst_colour.jpg12-Sep-2013 17:33 24K 
[IMG]ReceptionHistory.gif17-Dec-2018 11:57 11K 
[IMG]RainStorm.gif17-Dec-2018 11:57 4.6K 
[IMG]RainRateHistory.gif17-Dec-2018 11:57 10K 
[IMG]RainRate.gif17-Dec-2018 11:57 5.8K 
[IMG]RainHistory.gif17-Dec-2018 11:57 10K 
[IMG]Rain.gif17-Dec-2018 11:57 4.5K 
[IMG]OutsideTempHistory.gif17-Dec-2018 11:57 9.5K 
[IMG]OutsideTemp.gif17-Dec-2018 11:57 5.4K 
[IMG]OutsideHumidityHistory.gif17-Dec-2018 11:57 9.1K 
[IMG]OutsideHumidity.gif17-Dec-2018 11:57 5.4K 
[TXT]Observatory_weather.htm17-Dec-2018 11:57 18K 
[TXT]Monthly_Vantage_Pro.htm17-Dec-2018 11:57 11K 
[IMG]MonthlyRain.gif17-Dec-2018 11:57 4.3K 
[IMG]InsideTempHistory.gif17-Dec-2018 11:57 9.3K 
[IMG]InsideTemp.gif17-Dec-2018 11:57 5.4K 
[IMG]InsideHumidityHistory.gif17-Dec-2018 11:57 9.5K 
[IMG]InsideHumidity.gif17-Dec-2018 11:57 5.5K 
[IMG]InsideHeatIndexHistory.gif17-Dec-2018 11:57 9.6K 
[IMG]InsideHeatIndex.gif17-Dec-2018 11:57 4.4K 
[IMG]InsideDewPointHistory.gif17-Dec-2018 11:57 9.1K 
[IMG]InsideDewPoint.gif17-Dec-2018 11:57 4.4K 
[IMG]HiWindSpeedHistory.gif17-Dec-2018 11:57 12K 
[IMG]HeatIndexHistory.gif17-Dec-2018 11:57 9.5K 
[IMG]HeatIndex.gif17-Dec-2018 11:57 5.3K 
[IMG]EMC.gif17-Dec-2018 11:57 4.2K 
[IMG]DewPointHistory.gif17-Dec-2018 11:57 9.2K 
[IMG]DewPoint.gif17-Dec-2018 11:57 5.4K 
[IMG]DCAMImage.jpg24-Jul-2018 13:16 249K 
[TXT]Current_Vantage_Pro.htm17-Dec-2018 11:57 13K 
[TXT]Current_Conditions.htm17-Dec-2018 11:57 2.7K 
[IMG]BarometerHistory.gif17-Dec-2018 11:57 9.3K 
[IMG]Barometer.gif17-Dec-2018 11:57 5.7K 
[IMG]AirDensity.gif17-Dec-2018 11:57 4.9K 
[TXT]201707.txt21-Feb-2018 15:01 183K 
[TXT]201706.txt21-Feb-2018 15:10 351K 
[TXT]201705.txt21-Feb-2018 15:10 1.1M 
[TXT]2015.txt13-Mar-2018 12:42 11M 
[IMG]10MinAvgWindSpeed.gif17-Dec-2018 11:57 4.3K 

Apache/2.2.14 (Ubuntu) Server at www.astro.gla.ac.uk Port 80